Hlavní strana
METAR-TAF:

METAR-TAF

Letiště :

MidCoast Regional Airport / Wright Army Airfield

Hinesville, Georgie, Spojené státy americké

zeměpisná šířka: 31-53N, zeměpisná délka: 081-34W, výška: 14 m

Aktuální stav počasí

Zpráva byla vytvořena před 59 minutami, v 22:56 UTC
Západní vítr 3 kt
Teplota 13°C
Vlhkost vzduchu 47%
Tlak 1017 hPa
Viditelnost: 16.1 km
Polojasno ve výšce 18000 ft

METAR: KLHW 262256Z AUTO 26003KT 10SM SCT180 13/02 A3002 RMK AO2 SLP169 T01330016 $

Čas: 18:55 (23:55 UTC)


TAF: chybějící

Stav a předpovědi počasí z více než 4 000 letišť (zprávy METAR a TAF).

Červené a žluté tečky na mapě představují dostupné meteorologické stanice.

Když kurzor umístíte na tečku, zobrazí se název stanice.

Pak kliknutím zobrazíte stav a předpověď počasí.

Chcete-li změnit mapu, kliknutím na zelené tlačítko se znaménkem +mapu přiblížíte, kliknutím na zelené tlačítko se znaménkem – mapu oddálíte a kliknutím na zelené šipky přejdete na sousední mapy.


METAR-TAF: